Time;durP1;ratioP1;P1;durP2;ratioP2;P2;SDS_P1;SDS_P2;PMS_P1;PMS_P2;Temp;Humidity;BMP_temperature;BMP_pressure;BME280_temperature;BME280_humidity;BME280_pressure;Samples;Min_cycle;Max_cycle;Signal;HPM_P1;HPM_P2
2022/01/11 00:00:35;;;;;;;18.70;10.20;;;;;;;;;;4969662;28;20046;-63
2022/01/11 00:03:04;;;;;;;18.17;9.77;;;;;;;;;;4964341;28;20066;-62
2022/01/11 00:05:36;;;;;;;17.75;9.48;;;;;;;;;;4969047;28;20471;-62
2022/01/11 00:08:03;;;;;;;18.55;9.93;;;;;;;;;;4968731;28;20130;-62
2022/01/11 00:10:33;;;;;;;20.10;9.88;;;;;;;;;;4972831;28;20510;-62
2022/01/11 00:13:01;;;;;;;27.73;10.95;;;;;;;;;;4972823;28;20392;-62
2022/01/11 00:15:29;;;;;;;19.08;10.95;;;;;;;;;;4972488;28;20133;-62
2022/01/11 00:17:57;;;;;;;18.98;10.73;;;;;;;;;;4969502;28;20161;-62
2022/01/11 00:20:24;;;;;;;22.02;10.50;;;;;;;;;;4970656;28;20062;-62
2022/01/11 00:25:37;;;;;;;18.95;9.60;;;;;;;;;;4971245;28;20066;-63
2022/01/11 00:28:04;;;;;;;16.88;8.73;;;;;;;;;;4898535;28;20120;-62
2022/01/11 00:30:33;;;;;;;18.13;9.98;;;;;;;;;;4895433;29;20135;-62
2022/01/11 00:33:03;;;;;;;18.35;9.88;;;;;;;;;;4895703;29;20400;-62
2022/01/11 00:35:39;;;;;;;16.90;9.15;;;;;;;;;;4893660;29;20104;-62
2022/01/11 00:38:08;;;;;;;15.07;8.63;;;;;;;;;;4888285;29;20051;-62
2022/01/11 00:40:35;;;;;;;18.58;9.55;;;;;;;;;;4896640;29;20049;-62
2022/01/11 00:43:02;;;;;;;19.10;9.82;;;;;;;;;;4892531;29;20048;-63
2022/01/11 00:45:29;;;;;;;15.52;9.07;;;;;;;;;;4891396;29;20135;-62
2022/01/11 00:47:55;;;;;;;20.40;9.13;;;;;;;;;;4899931;29;20143;-62
2022/01/11 00:50:23;;;;;;;26.83;12.00;;;;;;;;;;4912857;29;20127;-63
2022/01/11 00:52:50;;;;;;;26.70;12.55;;;;;;;;;;4915710;29;20458;-62
2022/01/11 00:55:18;;;;;;;25.98;12.15;;;;;;;;;;4910664;29;20040;-63
2022/01/11 00:57:46;;;;;;;29.42;12.65;;;;;;;;;;4910578;29;20055;-62
2022/01/11 01:00:13;;;;;;;26.83;11.15;;;;;;;;;;4908853;29;20241;-62
2022/01/11 01:02:39;;;;;;;22.65;12.20;;;;;;;;;;4907982;29;20048;-62
2022/01/11 01:05:07;;;;;;;17.55;10.20;;;;;;;;;;4911002;29;20079;-61
2022/01/11 01:07:34;;;;;;;25.98;10.77;;;;;;;;;;4906908;29;20091;-61
2022/01/11 01:10:04;;;;;;;23.42;11.88;;;;;;;;;;4910012;29;20071;-62
2022/01/11 01:12:33;;;;;;;25.02;11.65;;;;;;;;;;4913428;29;20413;-61
2022/01/11 01:14:59;;;;;;;22.75;12.77;;;;;;;;;;4909740;29;20048;-63
2022/01/11 01:17:27;;;;;;;24.63;12.70;;;;;;;;;;4913168;29;20123;-62
2022/01/11 01:19:54;;;;;;;24.83;11.43;;;;;;;;;;4908653;29;20505;-62
2022/01/11 01:22:20;;;;;;;28.95;11.88;;;;;;;;;;4911454;29;20055;-61
2022/01/11 01:24:47;;;;;;;25.58;13.02;;;;;;;;;;4913734;29;20044;-64
2022/01/11 01:27:14;;;;;;;23.10;12.18;;;;;;;;;;4913323;29;20044;-61
2022/01/11 01:29:42;;;;;;;28.90;13.43;;;;;;;;;;4909612;29;20134;-63
2022/01/11 01:32:09;;;;;;;29.45;13.80;;;;;;;;;;4903960;29;20565;-62
2022/01/11 01:34:36;;;;;;;26.92;13.65;;;;;;;;;;4912471;29;20079;-63
2022/01/11 01:37:03;;;;;;;33.42;13.38;;;;;;;;;;4893104;29;20504;-61
2022/01/11 01:39:30;;;;;;;29.60;12.90;;;;;;;;;;4911452;29;20055;-62
2022/01/11 01:41:57;;;;;;;26.58;14.02;;;;;;;;;;4911957;29;20155;-62
2022/01/11 01:44:25;;;;;;;29.88;11.77;;;;;;;;;;4904693;29;20079;-60
2022/01/11 01:46:53;;;;;;;30.48;12.70;;;;;;;;;;4905719;29;20047;-61
2022/01/11 01:49:22;;;;;;;34.55;13.80;;;;;;;;;;4912069;29;20162;-62
2022/01/11 01:51:48;;;;;;;28.20;13.00;;;;;;;;;;4911829;29;20047;-62
2022/01/11 01:54:16;;;;;;;29.50;13.32;;;;;;;;;;4913528;29;20129;-62
2022/01/11 01:56:43;;;;;;;26.27;12.75;;;;;;;;;;4911356;29;20245;-62
2022/01/11 01:59:10;;;;;;;32.45;14.60;;;;;;;;;;4906055;29;20128;-62
2022/01/11 02:01:43;;;;;;;31.25;13.45;;;;;;;;;;4907416;29;20514;-62
2022/01/11 02:04:11;;;;;;;28.92;13.63;;;;;;;;;;4913990;29;20048;-62
2022/01/11 02:06:38;;;;;;;30.48;13.05;;;;;;;;;;4907957;29;20044;-62
2022/01/11 02:09:05;;;;;;;24.20;12.32;;;;;;;;;;4914416;29;20051;-62
2022/01/11 02:11:32;;;;;;;33.25;14.25;;;;;;;;;;4913436;29;20139;-61
2022/01/11 02:13:59;;;;;;;31.90;13.50;;;;;;;;;;4908623;29;20074;-61
2022/01/11 02:16:26;;;;;;;29.23;13.95;;;;;;;;;;4905301;29;20068;-62
2022/01/11 02:18:53;;;;;;;27.65;13.13;;;;;;;;;;4914158;29;20052;-62
2022/01/11 02:21:22;;;;;;;32.85;14.45;;;;;;;;;;4912001;29;20057;-62
2022/01/11 02:23:49;;;;;;;25.15;13.23;;;;;;;;;;4911014;29;20466;-62
2022/01/11 02:26:16;;;;;;;31.58;15.55;;;;;;;;;;4913971;29;20139;-62
2022/01/11 02:28:43;;;;;;;27.38;13.52;;;;;;;;;;4905885;29;20139;-62
2022/01/11 02:31:12;;;;;;;30.42;14.05;;;;;;;;;;4910709;29;20454;-62
2022/01/11 02:33:43;;;;;;;31.25;14.70;;;;;;;;;;4913227;29;20052;-63
2022/01/11 02:36:13;;;;;;;28.17;12.60;;;;;;;;;;4909189;29;20051;-60
2022/01/11 02:38:41;;;;;;;26.70;13.98;;;;;;;;;;4907655;29;20131;-62
2022/01/11 02:41:08;;;;;;;30.85;14.18;;;;;;;;;;4910980;29;20592;-62
2022/01/11 02:43:34;;;;;;;30.73;13.57;;;;;;;;;;4910177;29;20056;-60
2022/01/11 02:46:01;;;;;;;32.88;14.82;;;;;;;;;;4909960;29;20086;-62
2022/01/11 02:48:29;;;;;;;32.78;14.48;;;;;;;;;;4909595;29;20060;-62
2022/01/11 02:50:55;;;;;;;30.17;12.68;;;;;;;;;;4910337;29;20155;-62
2022/01/11 02:53:22;;;;;;;29.98;13.82;;;;;;;;;;4916233;29;20547;-62
2022/01/11 02:55:50;;;;;;;26.13;13.43;;;;;;;;;;4915801;29;20048;-63
2022/01/11 02:58:17;;;;;;;27.52;12.50;;;;;;;;;;4912034;29;20135;-62
2022/01/11 03:00:43;;;;;;;25.67;13.02;;;;;;;;;;4914479;29;20071;-62
2022/01/11 03:03:12;;;;;;;22.77;12.98;;;;;;;;;;4917253;29;20046;-61
2022/01/11 03:05:45;;;;;;;27.63;13.52;;;;;;;;;;4915297;29;20064;-61
2022/01/11 03:08:12;;;;;;;24.33;12.98;;;;;;;;;;4916549;29;20412;-62
2022/01/11 03:10:38;;;;;;;28.70;13.60;;;;;;;;;;4913108;29;20135;-60
2022/01/11 03:13:08;;;;;;;28.98;12.45;;;;;;;;;;4915616;29;20051;-62
2022/01/11 03:15:35;;;;;;;25.17;13.82;;;;;;;;;;4911814;29;21615;-62
2022/01/11 03:18:04;;;;;;;28.33;13.43;;;;;;;;;;4902189;29;20100;-61
2022/01/11 03:20:30;;;;;;;28.95;13.93;;;;;;;;;;4915863;29;20473;-62
2022/01/11 03:22:57;;;;;;;25.25;13.27;;;;;;;;;;4913533;29;20048;-61
2022/01/11 03:25:25;;;;;;;32.42;13.82;;;;;;;;;;4920528;29;20135;-61
2022/01/11 03:27:51;;;;;;;31.92;13.40;;;;;;;;;;4911618;29;20116;-60
2022/01/11 03:30:19;;;;;;;22.98;11.75;;;;;;;;;;4910631;29;20047;-62
2022/01/11 03:32:46;;;;;;;30.77;14.40;;;;;;;;;;4917632;29;20439;-62
2022/01/11 03:35:13;;;;;;;27.55;13.18;;;;;;;;;;4915328;29;23503;-62
2022/01/11 03:37:41;;;;;;;25.48;12.80;;;;;;;;;;4913853;29;20488;-61
2022/01/11 03:40:10;;;;;;;27.17;12.85;;;;;;;;;;4907312;29;20051;-61
2022/01/11 03:42:37;;;;;;;24.05;12.85;;;;;;;;;;4919601;29;20126;-62
2022/01/11 03:45:04;;;;;;;32.15;12.73;;;;;;;;;;4913016;29;20125;-62
2022/01/11 03:47:32;;;;;;;27.55;12.85;;;;;;;;;;4912282;29;20533;-62
2022/01/11 03:49:58;;;;;;;26.30;12.32;;;;;;;;;;4914047;29;20048;-62
2022/01/11 03:52:25;;;;;;;25.73;12.60;;;;;;;;;;4915913;29;20075;-62
2022/01/11 03:55:03;;;;;;;22.13;12.05;;;;;;;;;;4915454;29;20048;-61
2022/01/11 03:57:31;;;;;;;25.33;12.60;;;;;;;;;;4910657;29;20054;-62
2022/01/11 03:59:58;;;;;;;27.42;11.60;;;;;;;;;;4910945;29;20052;-62
2022/01/11 04:02:25;;;;;;;26.42;12.20;;;;;;;;;;4913886;29;20123;-62
2022/01/11 04:04:53;;;;;;;24.40;11.32;;;;;;;;;;4913951;29;20127;-60
2022/01/11 04:07:20;;;;;;;25.55;12.32;;;;;;;;;;4908261;29;20063;-62
2022/01/11 04:09:47;;;;;;;23.85;12.10;;;;;;;;;;4917003;29;20060;-59
2022/01/11 04:12:14;;;;;;;23.60;11.80;;;;;;;;;;4912818;29;20044;-62
2022/01/11 04:14:40;;;;;;;22.35;12.02;;;;;;;;;;4909036;29;20201;-62
2022/01/11 04:17:07;;;;;;;21.77;10.80;;;;;;;;;;4910838;29;20060;-62
2022/01/11 04:19:33;;;;;;;22.98;12.30;;;;;;;;;;4912187;29;20052;-63
2022/01/11 04:22:01;;;;;;;23.20;11.80;;;;;;;;;;4909170;29;20457;-61
2022/01/11 04:24:28;;;;;;;27.50;12.63;;;;;;;;;;4912065;29;20406;-62
2022/01/11 04:26:54;;;;;;;26.30;11.68;;;;;;;;;;4913379;29;20136;-61
2022/01/11 04:29:21;;;;;;;21.75;10.90;;;;;;;;;;4912179;29;20084;-62
2022/01/11 04:31:48;;;;;;;23.85;12.27;;;;;;;;;;4914036;29;20401;-61
2022/01/11 04:34:14;;;;;;;21.35;10.85;;;;;;;;;;4912763;29;20478;-62
2022/01/11 04:36:41;;;;;;;26.52;12.25;;;;;;;;;;4907051;29;20139;-60
2022/01/11 04:39:11;;;;;;;25.48;12.35;;;;;;;;;;4911208;29;20159;-62
2022/01/11 04:41:38;;;;;;;21.25;10.05;;;;;;;;;;4912030;29;20055;-62
2022/01/11 04:44:05;;;;;;;22.20;10.60;;;;;;;;;;4910351;29;20134;-62
2022/01/11 04:46:31;;;;;;;28.80;11.07;;;;;;;;;;4908887;29;20552;-62
2022/01/11 04:48:59;;;;;;;23.77;11.13;;;;;;;;;;4912208;29;20059;-61
2022/01/11 04:51:26;;;;;;;23.60;11.57;;;;;;;;;;4911387;29;20498;-62
2022/01/11 04:53:53;;;;;;;25.35;12.32;;;;;;;;;;4910115;29;20150;-62
2022/01/11 04:56:21;;;;;;;25.23;12.75;;;;;;;;;;4911641;29;20138;-62
2022/01/11 04:58:48;;;;;;;23.48;12.88;;;;;;;;;;4911686;29;20143;-62
2022/01/11 05:01:15;;;;;;;29.92;13.45;;;;;;;;;;4909929;29;20429;-62
2022/01/11 05:03:41;;;;;;;23.67;11.88;;;;;;;;;;4910555;29;20465;-61
2022/01/11 05:06:08;;;;;;;26.58;12.60;;;;;;;;;;4910423;29;20504;-61
2022/01/11 05:08:34;;;;;;;24.17;11.57;;;;;;;;;;4908958;29;20135;-61
2022/01/11 05:11:01;;;;;;;19.80;10.27;;;;;;;;;;4924018;29;20079;-61
2022/01/11 05:13:31;;;;;;;24.38;10.98;;;;;;;;;;4928173;29;21212;-61
2022/01/11 05:15:59;;;;;;;22.13;11.10;;;;;;;;;;4930154;29;20115;-61
2022/01/11 05:18:25;;;;;;;25.20;11.90;;;;;;;;;;4933629;29;20046;-60
2022/01/11 05:20:52;;;;;;;19.15;10.55;;;;;;;;;;4929536;29;20044;-61
2022/01/11 05:23:18;;;;;;;23.48;11.52;;;;;;;;;;4929195;29;20228;-61
2022/01/11 05:25:46;;;;;;;24.02;10.57;;;;;;;;;;4929573;29;20055;-59
2022/01/11 05:28:12;;;;;;;23.88;12.00;;;;;;;;;;4928987;29;20229;-62
2022/01/11 05:30:40;;;;;;;19.95;10.07;;;;;;;;;;4927309;29;20139;-61
2022/01/11 05:33:07;;;;;;;22.00;10.48;;;;;;;;;;4928371;29;20138;-62
2022/01/11 05:35:33;;;;;;;21.42;11.00;;;;;;;;;;4934536;29;20198;-62
2022/01/11 05:38:00;;;;;;;22.58;11.10;;;;;;;;;;4928678;29;20111;-61
2022/01/11 05:40:27;;;;;;;19.85;9.32;;;;;;;;;;4925499;29;20046;-61
2022/01/11 05:42:53;;;;;;;23.25;9.95;;;;;;;;;;4935576;29;20134;-62
2022/01/11 05:45:20;;;;;;;21.10;10.40;;;;;;;;;;4925961;29;20135;-59
2022/01/11 05:47:52;;;;;;;21.80;9.75;;;;;;;;;;4925976;29;20158;-60
2022/01/11 05:50:20;;;;;;;20.35;9.80;;;;;;;;;;4932049;29;20059;-60
2022/01/11 05:52:48;;;;;;;17.33;8.10;;;;;;;;;;4930758;29;20135;-59
2022/01/11 05:55:16;;;;;;;21.42;9.35;;;;;;;;;;4931288;29;20039;-61
2022/01/11 05:57:42;;;;;;;21.50;9.77;;;;;;;;;;4929864;29;20055;-61
2022/01/11 06:00:11;;;;;;;18.85;9.57;;;;;;;;;;4927552;29;20075;-61
2022/01/11 06:02:41;;;;;;;18.25;9.48;;;;;;;;;;4928759;29;20115;-61
2022/01/11 06:05:10;;;;;;;22.05;10.75;;;;;;;;;;4923928;29;20059;-61
2022/01/11 06:07:37;;;;;;;20.95;9.73;;;;;;;;;;4929616;29;20205;-60
2022/01/11 06:10:05;;;;;;;19.45;10.18;;;;;;;;;;4931103;29;20048;-60
2022/01/11 06:12:32;;;;;;;19.73;11.02;;;;;;;;;;4934685;29;20139;-61
2022/01/11 06:14:58;;;;;;;20.00;10.18;;;;;;;;;;4928366;29;20135;-61
2022/01/11 06:17:25;;;;;;;20.65;9.30;;;;;;;;;;4928622;29;20143;-60
2022/01/11 06:19:51;;;;;;;18.63;9.20;;;;;;;;;;4934065;29;20044;-61
2022/01/11 06:22:20;;;;;;;17.35;9.10;;;;;;;;;;4927951;29;20135;-58
2022/01/11 06:24:47;;;;;;;20.15;9.80;;;;;;;;;;4927276;29;20067;-59
2022/01/11 06:27:14;;;;;;;17.58;9.18;;;;;;;;;;4930423;29;20106;-58
2022/01/11 06:29:41;;;;;;;24.67;10.48;;;;;;;;;;4926708;29;20540;-60
2022/01/11 06:32:08;;;;;;;17.48;9.95;;;;;;;;;;4927952;29;20079;-58
2022/01/11 06:34:34;;;;;;;19.30;9.07;;;;;;;;;;4931312;29;20135;-58
2022/01/11 06:37:01;;;;;;;20.33;9.85;;;;;;;;;;4927481;29;20477;-60
2022/01/11 06:39:29;;;;;;;16.70;8.93;;;;;;;;;;4932329;29;20057;-60
2022/01/11 06:41:56;;;;;;;21.80;10.25;;;;;;;;;;4931455;29;20139;-60
2022/01/11 06:44:22;;;;;;;19.02;9.40;;;;;;;;;;4924680;29;20320;-59
2022/01/11 06:46:49;;;;;;;20.15;10.30;;;;;;;;;;4929761;29;20071;-60
2022/01/11 06:49:15;;;;;;;15.10;8.10;;;;;;;;;;4927877;29;20078;-61
2022/01/11 06:51:42;;;;;;;17.63;9.18;;;;;;;;;;4927969;29;20052;-60
2022/01/11 06:54:08;;;;;;;23.90;11.43;;;;;;;;;;4926287;29;20131;-61
2022/01/11 06:56:36;;;;;;;19.60;9.75;;;;;;;;;;4929325;29;20138;-60
2022/01/11 06:59:03;;;;;;;22.25;9.82;;;;;;;;;;4926569;29;20048;-60
2022/01/11 07:01:30;;;;;;;23.75;10.18;;;;;;;;;;4927061;29;20142;-61
2022/01/11 07:03:56;;;;;;;20.90;9.63;;;;;;;;;;4924548;29;20044;-59
2022/01/11 07:06:23;;;;;;;19.45;9.95;;;;;;;;;;4920984;29;20062;-60
2022/01/11 07:08:49;;;;;;;21.65;9.40;;;;;;;;;;4927381;29;20048;-61
2022/01/11 07:11:16;;;;;;;22.00;9.32;;;;;;;;;;4932189;29;20174;-60
2022/01/11 07:13:44;;;;;;;16.42;8.68;;;;;;;;;;4926351;29;20054;-60
2022/01/11 07:16:10;;;;;;;18.27;9.18;;;;;;;;;;4929249;29;20163;-61
2022/01/11 07:18:37;;;;;;;17.85;9.50;;;;;;;;;;4925985;29;20047;-59
2022/01/11 07:21:03;;;;;;;17.58;9.45;;;;;;;;;;4928776;29;20091;-60
2022/01/11 07:23:30;;;;;;;19.23;9.40;;;;;;;;;;4927532;29;20201;-60
2022/01/11 07:25:56;;;;;;;15.75;8.68;;;;;;;;;;4932812;29;20606;-59
2022/01/11 07:28:23;;;;;;;16.75;8.60;;;;;;;;;;4926383;29;20130;-62
2022/01/11 07:30:51;;;;;;;25.50;10.10;;;;;;;;;;4929676;29;20137;-62
2022/01/11 07:33:18;;;;;;;25.00;9.13;;;;;;;;;;4932640;29;20134;-61
2022/01/11 07:35:44;;;;;;;19.02;8.60;;;;;;;;;;4927969;29;20151;-58
2022/01/11 07:38:11;;;;;;;24.52;9.32;;;;;;;;;;4929384;29;20134;-61
2022/01/11 07:40:38;;;;;;;19.40;9.98;;;;;;;;;;4931367;29;20230;-60
2022/01/11 07:43:04;;;;;;;22.95;10.15;;;;;;;;;;4930610;29;20142;-61
2022/01/11 07:45:31;;;;;;;19.30;9.48;;;;;;;;;;4940539;29;20491;-61
2022/01/11 07:47:59;;;;;;;19.08;9.45;;;;;;;;;;4928870;29;20148;-61
2022/01/11 07:50:26;;;;;;;18.73;9.40;;;;;;;;;;4930775;29;20043;-60
2022/01/11 07:52:52;;;;;;;19.00;8.30;;;;;;;;;;4932531;29;20485;-60
2022/01/11 07:55:19;;;;;;;16.10;9.32;;;;;;;;;;4934039;29;20086;-61
2022/01/11 07:57:46;;;;;;;17.90;9.43;;;;;;;;;;4931954;29;20539;-55
2022/01/11 08:00:13;;;;;;;15.27;8.45;;;;;;;;;;4933652;29;20056;-59
2022/01/11 08:02:40;;;;;;;24.02;10.55;;;;;;;;;;4935332;29;20075;-53
2022/01/11 08:05:08;;;;;;;23.13;10.15;;;;;;;;;;4935835;29;20089;-57
2022/01/11 08:07:35;;;;;;;20.88;10.13;;;;;;;;;;4928427;29;20139;-57
2022/01/11 08:10:01;;;;;;;20.98;10.23;;;;;;;;;;4937283;29;20146;-53
2022/01/11 08:12:28;;;;;;;22.67;9.65;;;;;;;;;;4935033;29;20126;-60
2022/01/11 08:14:54;;;;;;;17.85;8.43;;;;;;;;;;4933975;29;20157;-60
2022/01/11 08:17:21;;;;;;;23.38;9.48;;;;;;;;;;4934411;29;20127;-60
2022/01/11 08:19:47;;;;;;;18.42;8.82;;;;;;;;;;4929769;29;20073;-59
2022/01/11 08:22:15;;;;;;;20.92;10.35;;;;;;;;;;4932766;29;20142;-61
2022/01/11 08:24:44;;;;;;;19.98;9.77;;;;;;;;;;4928703;29;20473;-59
2022/01/11 08:27:11;;;;;;;28.05;13.13;;;;;;;;;;4934961;29;20481;-61
2022/01/11 08:29:39;;;;;;;22.52;12.52;;;;;;;;;;4933904;29;20164;-61
2022/01/11 08:32:06;;;;;;;24.92;13.57;;;;;;;;;;4932645;29;20046;-59
2022/01/11 08:34:33;;;;;;;24.33;11.32;;;;;;;;;;4928392;29;20079;-61
2022/01/11 08:37:00;;;;;;;22.55;12.70;;;;;;;;;;4930826;29;20131;-59
2022/01/11 08:39:28;;;;;;;24.48;11.70;;;;;;;;;;4932708;29;20070;-59
2022/01/11 08:41:55;;;;;;;23.65;12.52;;;;;;;;;;4933040;29;20150;-61
2022/01/11 08:44:23;;;;;;;24.00;12.68;;;;;;;;;;4933377;29;20074;-61
2022/01/11 08:46:50;;;;;;;26.80;12.27;;;;;;;;;;4925509;29;20062;-60
2022/01/11 08:49:18;;;;;;;20.38;11.05;;;;;;;;;;4929803;29;20090;-61
2022/01/11 08:51:44;;;;;;;19.40;10.75;;;;;;;;;;4934251;29;20130;-60
2022/01/11 08:54:12;;;;;;;25.15;13.18;;;;;;;;;;4932375;29;20067;-61
2022/01/11 08:56:40;;;;;;;27.00;13.60;;;;;;;;;;4934328;29;21450;-61
2022/01/11 08:59:06;;;;;;;38.38;18.63;;;;;;;;;;4928907;29;20140;-61
2022/01/11 09:01:34;;;;;;;47.78;23.00;;;;;;;;;;4930787;29;20051;-61
2022/01/11 09:04:00;;;;;;;46.22;21.70;;;;;;;;;;4926617;29;20051;-61
2022/01/11 09:06:27;;;;;;;43.53;20.83;;;;;;;;;;4930119;29;20135;-61
2022/01/11 09:08:53;;;;;;;35.60;17.73;;;;;;;;;;4929370;29;20063;-61
2022/01/11 09:11:20;;;;;;;31.77;16.13;;;;;;;;;;4958463;28;20134;-61
2022/01/11 09:13:48;;;;;;;21.42;12.38;;;;;;;;;;4929575;29;20546;-60
2022/01/11 09:16:15;;;;;;;22.63;11.05;;;;;;;;;;4930473;29;20048;-60
2022/01/11 09:18:42;;;;;;;16.08;8.68;;;;;;;;;;4939436;29;20150;-61
2022/01/11 09:21:08;;;;;;;13.82;7.05;;;;;;;;;;4928803;29;20485;-60
2022/01/11 09:23:36;;;;;;;15.25;8.15;;;;;;;;;;4932742;29;20134;-61
2022/01/11 09:26:03;;;;;;;12.20;6.57;;;;;;;;;;4931322;29;20086;-59
2022/01/11 09:28:30;;;;;;;16.45;7.00;;;;;;;;;;4933498;29;20131;-61
2022/01/11 09:30:58;;;;;;;12.93;7.22;;;;;;;;;;4924272;29;20576;-61
2022/01/11 09:33:24;;;;;;;13.52;5.90;;;;;;;;;;4927099;29;20054;-63
2022/01/11 09:35:51;;;;;;;13.32;6.28;;;;;;;;;;4935059;29;20139;-61
2022/01/11 09:38:18;;;;;;;12.43;6.18;;;;;;;;;;4935755;29;20083;-60
2022/01/11 09:40:44;;;;;;;15.45;7.88;;;;;;;;;;4927259;29;20152;-62
2022/01/11 09:43:12;;;;;;;15.35;8.10;;;;;;;;;;4929083;29;20127;-59
2022/01/11 09:45:39;;;;;;;15.55;7.03;;;;;;;;;;4926933;29;20473;-61
2022/01/11 09:48:07;;;;;;;13.95;7.70;;;;;;;;;;4933159;29;20126;-59
2022/01/11 09:50:33;;;;;;;11.25;5.50;;;;;;;;;;4928479;29;20478;-61
2022/01/11 09:53:00;;;;;;;10.50;6.35;;;;;;;;;;4932045;29;20154;-61
2022/01/11 09:55:27;;;;;;;10.18;4.78;;;;;;;;;;4929991;29;20151;-58
2022/01/11 09:57:53;;;;;;;10.80;6.07;;;;;;;;;;4928904;29;20168;-59
2022/01/11 10:00:20;;;;;;;9.88;5.40;;;;;;;;;;4925295;29;20131;-61
2022/01/11 10:02:46;;;;;;;12.93;6.10;;;;;;;;;;4929371;29;20136;-60
2022/01/11 10:05:15;;;;;;;9.63;5.65;;;;;;;;;;4928175;29;20560;-61
2022/01/11 10:07:42;;;;;;;7.82;4.50;;;;;;;;;;4930546;29;20071;-61
2022/01/11 10:10:12;;;;;;;9.02;4.47;;;;;;;;;;4930844;29;20071;-61
2022/01/11 10:12:44;;;;;;;8.60;4.38;;;;;;;;;;4930840;29;20740;-60
2022/01/11 10:15:10;;;;;;;8.18;4.60;;;;;;;;;;4934181;29;20131;-61
2022/01/11 10:17:40;;;;;;;13.52;6.38;;;;;;;;;;4937499;29;20158;-61
2022/01/11 10:20:09;;;;;;;9.38;5.45;;;;;;;;;;4929155;29;20139;-62
2022/01/11 10:22:45;;;;;;;7.97;3.78;;;;;;;;;;4925106;29;20556;-60
2022/01/11 10:25:12;;;;;;;;;;;;;;;;;;4933702;29;20484;-60
2022/01/11 10:27:38;;;;;;;9.02;4.93;;;;;;;;;;4927726;29;19923;-57
2022/01/11 10:30:07;;;;;;;10.88;5.28;;;;;;;;;;4933435;29;20047;-59
2022/01/11 10:32:36;;;;;;;11.70;5.53;;;;;;;;;;4928841;29;20532;-61
2022/01/11 10:35:05;;;;;;;8.60;4.95;;;;;;;;;;4931842;29;20054;-60
2022/01/11 10:37:34;;;;;;;7.97;4.85;;;;;;;;;;4925181;29;20134;-61
2022/01/11 10:40:12;;;;;;;10.48;4.90;;;;;;;;;;4922073;29;20484;-61
2022/01/11 10:42:45;;;;;;;7.82;4.70;;;;;;;;;;4932348;29;20053;-58
2022/01/11 10:45:12;;;;;;;6.05;3.25;;;;;;;;;;4932269;29;20465;-59
2022/01/11 10:47:41;;;;;;;7.38;3.55;;;;;;;;;;4927465;29;20126;-60
2022/01/11 10:50:11;;;;;;;7.60;3.90;;;;;;;;;;4931002;29;20143;-59
2022/01/11 10:52:38;;;;;;;7.38;4.40;;;;;;;;;;4933603;29;20134;-59
2022/01/11 10:55:08;;;;;;;9.05;4.72;;;;;;;;;;4931613;29;20085;-61
2022/01/11 10:57:38;;;;;;;8.70;4.50;;;;;;;;;;4931394;29;20135;-61
2022/01/11 11:00:15;;;;;;;10.10;4.70;;;;;;;;;;4925435;29;20041;-62
2022/01/11 11:02:42;;;;;;;9.35;5.35;;;;;;;;;;4933520;29;20072;-61
2022/01/11 11:05:18;;;;;;;11.55;6.07;;;;;;;;;;4935357;29;20547;-61
2022/01/11 11:07:54;;;;;;;8.83;5.47;;;;;;;;;;4927789;29;20135;-60
2022/01/11 11:10:31;;;;;;;10.40;5.45;;;;;;;;;;4929588;29;20398;-59
2022/01/11 11:12:59;;;;;;;11.60;5.15;;;;;;;;;;4928873;29;20130;-60
2022/01/11 11:15:29;;;;;;;7.70;4.10;;;;;;;;;;4932540;29;20151;-56
2022/01/11 11:17:55;;;;;;;8.38;4.60;;;;;;;;;;4931614;29;20044;-61
2022/01/11 11:20:22;;;;;;;8.27;4.30;;;;;;;;;;4929457;29;20083;-58
2022/01/11 11:22:49;;;;;;;8.00;4.75;;;;;;;;;;4937856;29;20078;-61
2022/01/11 11:25:15;;;;;;;19.52;6.07;;;;;;;;;;4936115;29;20043;-56
2022/01/11 11:27:43;;;;;;;9.90;5.00;;;;;;;;;;4935745;29;20592;-61
2022/01/11 11:30:10;;;;;;;9.25;5.03;;;;;;;;;;4933033;29;20138;-59
2022/01/11 11:32:37;;;;;;;10.32;4.97;;;;;;;;;;4935750;29;20131;-62
2022/01/11 11:35:04;;;;;;;8.73;4.68;;;;;;;;;;4933556;29;20131;-59
2022/01/11 11:37:33;;;;;;;10.52;5.18;;;;;;;;;;4932051;29;20130;-61
2022/01/11 11:40:01;;;;;;;7.25;3.70;;;;;;;;;;4932676;29;20146;-61
2022/01/11 11:42:29;;;;;;;9.63;4.60;;;;;;;;;;4935170;29;20135;-61
2022/01/11 11:44:58;;;;;;;5.75;3.65;;;;;;;;;;4933902;29;20250;-61
2022/01/11 11:47:31;;;;;;;9.35;3.47;;;;;;;;;;4923115;29;20131;-59
2022/01/11 11:50:00;;;;;;;5.97;3.55;;;;;;;;;;4932028;29;20052;-61
2022/01/11 11:52:29;;;;;;;4.20;2.80;;;;;;;;;;4933166;29;20071;-60
2022/01/11 11:54:57;;;;;;;5.00;2.50;;;;;;;;;;4936660;29;20051;-58
2022/01/11 11:57:25;;;;;;;6.93;3.58;;;;;;;;;;4935774;29;20130;-61
2022/01/11 11:59:54;;;;;;;8.23;4.85;;;;;;;;;;4925817;29;20119;-61
2022/01/11 12:02:37;;;;;;;7.97;3.72;;;;;;;;;;4927909;29;20123;-62
2022/01/11 12:05:09;;;;;;;10.68;4.22;;;;;;;;;;4930028;29;20437;-61
2022/01/11 12:07:40;;;;;;;7.75;4.22;;;;;;;;;;4935504;29;20058;-58
2022/01/11 12:10:12;;;;;;;8.27;3.58;;;;;;;;;;4930606;29;20056;-60
2022/01/11 12:12:43;;;;;;;7.18;3.20;;;;;;;;;;4923348;29;20480;-61
2022/01/11 12:15:38;;;;;;;7.53;3.80;;;;;;;;;;4928178;29;20056;-60
2022/01/11 12:18:18;;;;;;;5.63;3.28;;;;;;;;;;4927241;29;20099;-63
2022/01/11 12:20:50;;;;;;;5.55;2.97;;;;;;;;;;4927184;29;20079;-61
2022/01/11 12:23:22;;;;;;;8.43;3.60;;;;;;;;;;4929317;29;20044;-61
2022/01/11 12:25:55;;;;;;;8.88;4.70;;;;;;;;;;4928964;29;20135;-61
2022/01/11 12:28:24;;;;;;;7.63;4.25;;;;;;;;;;4934181;29;20716;-60
2022/01/11 12:30:50;;;;;;;6.60;3.92;;;;;;;;;;4927405;29;20071;-61
2022/01/11 12:33:21;;;;;;;8.85;4.93;;;;;;;;;;4927454;29;20118;-61
2022/01/11 12:36:01;;;;;;;5.68;3.10;;;;;;;;;;4931405;29;20054;-60
2022/01/11 12:38:29;;;;;;;6.70;2.70;;;;;;;;;;4922135;29;20103;-60
2022/01/11 12:40:56;;;;;;;6.28;3.20;;;;;;;;;;4930741;29;20120;-60
2022/01/11 12:43:39;;;;;;;7.30;3.10;;;;;;;;;;4922836;29;20048;-61
2022/01/11 12:46:08;;;;;;;5.88;2.90;;;;;;;;;;4924394;29;20135;-60
2022/01/11 12:49:02;;;;;;;6.85;3.53;;;;;;;;;;4923252;29;20057;-62
2022/01/11 12:51:31;;;;;;;5.85;3.45;;;;;;;;;;4925513;29;20047;-62
2022/01/11 12:54:18;;;;;;;7.05;3.28;;;;;;;;;;4930625;29;20043;-61
2022/01/11 12:56:46;;;;;;;7.85;3.78;;;;;;;;;;4920053;29;20044;-62
2022/01/11 12:59:13;;;;;;;7.72;3.95;;;;;;;;;;4920779;29;20055;-61
2022/01/11 13:01:40;;;;;;;6.85;3.75;;;;;;;;;;4919417;29;20080;-61
2022/01/11 13:04:08;;;;;;;6.35;3.33;;;;;;;;;;4926284;29;20560;-60
2022/01/11 13:06:36;;;;;;;12.00;3.88;;;;;;;;;;4926153;29;20166;-61
2022/01/11 13:09:05;;;;;;;5.70;3.25;;;;;;;;;;4925217;29;20457;-61
2022/01/11 13:11:32;;;;;;;7.15;3.47;;;;;;;;;;4920405;29;20178;-59
2022/01/11 13:14:17;;;;;;;7.88;3.65;;;;;;;;;;4922917;29;20464;-61
2022/01/11 13:16:44;;;;;;;7.38;3.67;;;;;;;;;;4919728;29;20177;-61
2022/01/11 13:19:12;;;;;;;7.05;3.70;;;;;;;;;;4925094;29;20068;-61
2022/01/11 13:21:39;;;;;;;7.93;4.80;;;;;;;;;;4921379;29;20058;-61
2022/01/11 13:24:16;;;;;;;7.10;4.30;;;;;;;;;;4926845;29;20058;-61
2022/01/11 13:26:42;;;;;;;11.10;5.60;;;;;;;;;;4927860;29;20051;-61
2022/01/11 13:29:09;;;;;;;7.72;4.75;;;;;;;;;;4921295;29;20139;-61
2022/01/11 13:31:38;;;;;;;9.18;5.38;;;;;;;;;;4921865;29;20055;-61
2022/01/11 13:34:07;;;;;;;8.95;5.53;;;;;;;;;;4922734;29;20099;-59
2022/01/11 13:36:38;;;;;;;10.95;5.57;;;;;;;;;;4922014;28;20086;-59
2022/01/11 13:39:06;;;;;;;10.32;5.40;;;;;;;;;;4919581;29;20513;-59
2022/01/11 13:41:34;;;;;;;8.30;4.90;;;;;;;;;;4922172;29;20047;-59
2022/01/11 13:44:03;;;;;;;8.20;5.38;;;;;;;;;;4921327;29;20835;-60
2022/01/11 13:46:29;;;;;;;11.10;5.20;;;;;;;;;;4921626;29;20113;-61
2022/01/11 13:48:57;;;;;;;9.77;4.70;;;;;;;;;;4923005;29;20074;-61
2022/01/11 13:51:25;;;;;;;10.32;5.55;;;;;;;;;;4923012;29;20155;-61
2022/01/11 13:53:59;;;;;;;17.23;6.57;;;;;;;;;;4918716;29;20408;-63
2022/01/11 13:56:31;;;;;;;11.63;5.68;;;;;;;;;;4918108;29;20131;-62
2022/01/11 13:58:58;;;;;;;8.13;5.13;;;;;;;;;;4919532;29;20051;-60
2022/01/11 14:01:26;;;;;;;7.75;4.07;;;;;;;;;;4920043;29;20073;-62
2022/01/11 14:04:05;;;;;;;5.90;3.80;;;;;;;;;;4920919;29;20048;-62
2022/01/11 14:06:40;;;;;;;6.60;4.38;;;;;;;;;;4919183;29;20524;-61
2022/01/11 14:09:12;;;;;;;6.15;3.78;;;;;;;;;;4919124;29;20054;-61
2022/01/11 14:11:40;;;;;;;7.60;4.25;;;;;;;;;;4920613;29;20055;-62
2022/01/11 14:14:07;;;;;;;6.60;4.07;;;;;;;;;;4918247;29;20064;-62
2022/01/11 14:16:35;;;;;;;8.35;3.58;;;;;;;;;;4927259;29;20058;-62
2022/01/11 14:19:04;;;;;;;9.10;5.15;;;;;;;;;;4921849;29;20059;-59
2022/01/11 14:21:31;;;;;;;8.05;4.88;;;;;;;;;;4923723;29;20063;-60
2022/01/11 14:23:58;;;;;;;7.15;4.00;;;;;;;;;;4915941;29;20055;-60
2022/01/11 14:26:34;;;;;;;10.10;4.90;;;;;;;;;;4921236;29;20099;-60
2022/01/11 14:29:01;;;;;;;7.75;4.10;;;;;;;;;;4929476;29;20441;-60
2022/01/11 14:31:31;;;;;;;20.77;8.18;;;;;;;;;;4920339;29;20154;-60
2022/01/11 14:34:08;;;;;;;19.83;9.00;;;;;;;;;;4919783;29;20050;-59
2022/01/11 14:36:35;;;;;;;12.35;5.45;;;;;;;;;;4921998;29;20060;-60